Time;durP1;ratioP1;P1;durP2;ratioP2;P2;SDS_P1;SDS_P2;PMS_P1;PMS_P2;Temp;Humidity;BMP_temperature;BMP_pressure;BME280_temperature;BME280_humidity;BME280_pressure;Samples;Min_cycle;Max_cycle;Signal;HPM_P1;HPM_P2
2021/05/17 00:01:58;;;;;;;;;;;;;;;26.84;36.45;99884.84;5059384;28;827;-42
2021/05/17 00:04:34;;;;;;;;;;;;;;;26.87;36.30;99882.59;5058690;28;807;-35
2021/05/17 00:06:59;;;;;;;;;;;;;;;26.87;36.25;99879.03;5042267;28;1910;-42
2021/05/17 00:09:25;;;;;;;;;;;;;;;26.83;36.43;99881.31;5059015;28;724;-36
2021/05/17 00:11:50;;;;;;;;;;;;;;;26.83;36.48;99875.06;5057988;28;971;-36
2021/05/17 00:14:16;;;;;;;;;;;;;;;26.81;36.28;99869.88;5058484;28;757;-42
2021/05/17 00:16:41;;;;;;;;;;;;;;;26.77;36.22;99866.78;5058779;28;744;-42
2021/05/17 00:19:06;;;;;;;;;;;;;;;26.78;36.50;99865.75;5040829;28;832;-35
2021/05/17 00:21:32;;;;;;;;;;;;;;;26.76;36.16;99866.97;5040834;28;740;-37
2021/05/17 00:23:57;;;;;;;;;;;;;;;26.78;36.41;99863.03;5059009;28;803;-36
2021/05/17 00:26:23;;;;;;;;;;;;;;;26.69;36.32;99866.97;5057906;28;1046;-37
2021/05/17 00:28:48;;;;;;;;;;;;;;;26.77;35.94;99869.47;5040319;28;1906;-38
2021/05/17 00:31:13;;;;;;;;;;;;;;;26.84;35.61;99874.88;5058324;28;808;-38
2021/05/17 00:33:39;;;;;;;;;;;;;;;26.86;35.46;99872.00;5046448;28;1092;-38
2021/05/17 00:36:04;;;;;;;;;;;;;;;26.81;35.80;99875.28;5036269;28;776;-38
2021/05/17 00:38:30;;;;;;;;;;;;;;;26.75;35.41;99873.41;5038588;28;1080;-38
2021/05/17 00:40:55;;;;;;;;;;;;;;;26.83;35.62;99886.72;5038002;28;815;-37
2021/05/17 00:43:25;;;;;;;;;;;;;;;26.80;35.93;99880.88;5053715;28;1007;-38
2021/05/17 00:45:50;;;;;;;;;;;;;;;26.82;35.73;99881.53;5057815;28;833;-39
2021/05/17 00:48:16;;;;;;;;;;;;;;;26.81;36.00;99880.69;5058001;28;1918;-42
2021/05/17 00:50:41;;;;;;;;;;;;;;;26.79;36.00;99882.75;5057571;28;1758;-37
2021/05/17 00:53:06;;;;;;;;;;;;;;;26.75;35.97;99878.78;5058113;28;760;-38
2021/05/17 00:55:32;;;;;;;;;;;;;;;26.71;36.01;99888.34;5040352;28;752;-38
2021/05/17 00:57:57;;;;;;;;;;;;;;;26.78;35.85;99887.31;5057429;28;995;-38
2021/05/17 01:00:23;;;;;;;;;;;;;;;26.88;35.71;99884.25;5058211;28;740;-38
2021/05/17 01:02:49;;;;;;;;;;;;;;;26.84;35.85;99887.56;5039814;28;1168;-38
2021/05/17 01:05:14;;;;;;;;;;;;;;;26.84;36.19;99890.25;5057559;28;815;-37
2021/05/17 01:07:45;;;;;;;;;;;;;;;26.78;35.98;99881.94;5057629;28;1898;-38
2021/05/17 01:10:11;;;;;;;;;;;;;;;26.84;36.04;99877.56;5041082;28;822;-38
2021/05/17 01:12:36;;;;;;;;;;;;;;;26.83;36.12;99881.31;5038929;28;956;-38
2021/05/17 01:15:01;;;;;;;;;;;;;;;26.84;35.97;99879.47;5057560;28;763;-37
2021/05/17 01:17:27;;;;;;;;;;;;;;;26.86;35.82;99886.31;5057554;28;767;-41
2021/05/17 01:20:01;;;;;;;;;;;;;;;26.91;35.85;99883.00;5057372;28;867;-39
2021/05/17 01:22:33;;;;;;;;;;;;;;;26.86;35.87;99880.91;5057425;28;763;-39
2021/05/17 01:24:59;;;;;;;;;;;;;;;26.88;36.20;99883.41;5040508;28;800;-38
2021/05/17 01:27:24;;;;;;;;;;;;;;;26.92;35.73;99879.28;5056967;28;1961;-37
2021/05/17 01:29:49;;;;;;;;;;;;;;;26.84;36.09;99877.56;5057231;28;808;-38
2021/05/17 01:32:15;;;;;;;;;;;;;;;26.90;35.81;99876.78;5039534;28;1168;-37
2021/05/17 01:34:40;;;;;;;;;;;;;;;26.87;35.88;99877.19;5037416;28;815;-37
2021/05/17 01:37:06;;;;;;;;;;;;;;;26.88;36.11;99873.44;5035996;28;1169;-38
2021/05/17 01:39:32;;;;;;;;;;;;;;;26.87;36.25;99879.03;5037361;28;1083;-38
2021/05/17 01:41:57;;;;;;;;;;;;;;;26.90;35.87;99867.84;5038348;28;948;-38
2021/05/17 01:44:25;;;;;;;;;;;;;;;26.93;36.02;99866.59;5056980;28;803;-37
2021/05/17 01:46:50;;;;;;;;;;;;;;;26.96;35.87;99868.91;5057066;28;1917;-37
2021/05/17 01:49:16;;;;;;;;;;;;;;;26.96;36.04;99877.00;5057231;28;768;-37
2021/05/17 01:51:43;;;;;;;;;;;;;;;26.94;35.83;99879.91;5039068;28;732;-37
2021/05/17 01:54:09;;;;;;;;;;;;;;;26.96;36.01;99877.81;5056789;28;1476;-37
2021/05/17 01:56:34;;;;;;;;;;;;;;;26.93;36.22;99875.53;5056131;28;916;-42
2021/05/17 01:58:59;;;;;;;;;;;;;;;26.93;35.88;99878.22;5039380;28;796;-37
2021/05/17 02:01:25;;;;;;;;;;;;;;;26.89;36.10;99885.09;5057032;28;740;-37
2021/05/17 02:03:51;;;;;;;;;;;;;;;26.84;36.12;99876.75;5056253;28;834;-37
2021/05/17 02:06:17;;;;;;;;;;;;;;;26.93;36.03;99877.38;5056341;28;855;-37
2021/05/17 02:08:49;;;;;;;;;;;;;;;26.90;36.05;99874.09;5057085;28;1949;-37
2021/05/17 02:11:14;;;;;;;;;;;;;;;26.89;36.23;99871.59;5055926;28;944;-37
2021/05/17 02:13:40;;;;;;;;;;;;;;;26.94;36.09;99876.38;5057051;28;759;-38
2021/05/17 02:16:05;;;;;;;;;;;;;;;26.92;35.80;99876.56;5056774;28;768;-37
2021/05/17 02:18:30;;;;;;;;;;;;;;;26.87;36.00;99881.75;5056981;28;700;-38
2021/05/17 02:20:56;;;;;;;;;;;;;;;26.94;35.92;99884.47;5056520;28;775;-38
2021/05/17 02:23:21;;;;;;;;;;;;;;;26.94;35.94;99881.78;5056660;28;792;-38
2021/05/17 02:25:48;;;;;;;;;;;;;;;26.96;35.95;99882.41;5056372;28;860;-38
2021/05/17 02:28:14;;;;;;;;;;;;;;;26.89;36.06;99879.69;5055730;28;1906;-38
2021/05/17 02:30:39;;;;;;;;;;;;;;;26.94;36.10;99887.16;5056632;28;739;-37
2021/05/17 02:33:05;;;;;;;;;;;;;;;26.94;36.17;99885.31;5054593;28;1147;-37
2021/05/17 02:35:30;;;;;;;;;;;;;;;26.96;36.19;99894.00;5056155;28;847;-38
2021/05/17 02:37:56;;;;;;;;;;;;;;;26.96;36.04;99885.91;5056792;28;1090;-37
2021/05/17 02:40:21;;;;;;;;;;;;;;;27.01;36.08;99888.00;5056020;28;861;-37
2021/05/17 02:42:47;;;;;;;;;;;;;;;26.99;35.73;99890.09;5040991;28;971;-38
2021/05/17 02:45:13;;;;;;;;;;;;;;;26.98;36.13;99888.41;5036793;28;846;-38
2021/05/17 02:47:39;;;;;;;;;;;;;;;26.97;35.97;99886.75;5036078;28;1969;-37
2021/05/17 02:50:05;;;;;;;;;;;;;;;26.98;35.96;99886.56;5035990;28;1456;-38
2021/05/17 02:52:30;;;;;;;;;;;;;;;26.98;35.85;99888.41;5036710;28;752;-38
2021/05/17 02:55:06;;;;;;;;;;;;;;;26.96;36.04;99885.09;5036563;28;764;-37
2021/05/17 02:57:44;;;;;;;;;;;;;;;26.94;36.34;99885.31;5048291;28;1430;-38
2021/05/17 03:00:15;;;;;;;;;;;;;;;26.97;36.57;99879.50;5060213;28;817;-36
2021/05/17 03:02:43;;;;;;;;;;;;;;;26.95;36.56;99886.13;5060103;28;791;-38
2021/05/17 03:05:09;;;;;;;;;;;;;;;26.87;35.22;99884.44;5059539;28;558;-40
2021/05/17 03:07:35;;;;;;;;;;;;;;;25.96;35.28;99884.38;5059878;28;1910;-41
2021/05/17 03:10:01;;;;;;;;;;;;;;;25.48;35.73;99886.63;5060121;28;751;-41
2021/05/17 03:12:26;;;;;;;;;;;;;;;25.32;36.03;99893.13;5058903;28;955;-41
2021/05/17 03:14:51;;;;;;;;;;;;;;;25.07;36.76;99894.28;5041994;28;791;-41
2021/05/17 03:17:19;;;;;;;;;;;;;;;24.63;37.24;99887.97;5059984;28;740;-42
2021/05/17 03:19:45;;;;;;;;;;;;;;;24.41;37.65;99887.03;5041843;28;883;-38
2021/05/17 03:22:10;;;;;;;;;;;;;;;24.24;37.95;99892.59;5059672;28;759;-41
2021/05/17 03:24:37;;;;;;;;;;;;;;;23.95;38.60;99894.22;5041733;28;835;-40
2021/05/17 03:27:13;;;;;;;;;;;;;;;23.92;38.96;99900.75;5040973;28;1914;-40
2021/05/17 03:29:38;;;;;;;;;;;;;;;23.70;39.24;99897.13;5041683;28;1282;-41
2021/05/17 03:32:04;;;;;;;;;;;;;;;23.64;39.41;99903.22;5060003;28;804;-39
2021/05/17 03:34:29;;;;;;;;;;;;;;;23.43;40.20;99893.97;5040562;28;1084;-40
2021/05/17 03:36:54;;;;;;;;;;;;;;;23.56;39.83;99904.09;5039625;28;818;-40
2021/05/17 03:39:20;;;;;;;;;;;;;;;23.44;40.13;99898.34;5039644;28;1077;-39
2021/05/17 03:41:45;;;;;;;;;;;;;;;23.36;40.36;99901.84;5041742;28;943;-39
2021/05/17 03:44:10;;;;;;;;;;;;;;;23.15;40.93;99906.03;5059467;28;816;-41
2021/05/17 03:46:35;;;;;;;;;;;;;;;23.33;40.51;99902.22;5059452;28;751;-40
2021/05/17 03:49:01;;;;;;;;;;;;;;;23.36;40.43;99900.03;5040926;28;1910;-40
2021/05/17 03:51:26;;;;;;;;;;;;;;;23.26;41.16;99915.50;5059123;28;802;-41
2021/05/17 03:53:51;;;;;;;;;;;;;;;23.29;40.93;99903.59;5059511;28;914;-42
2021/05/17 03:56:17;;;;;;;;;;;;;;;22.75;42.17;99903.38;5057460;28;1470;-41
2021/05/17 03:58:42;;;;;;;;;;;;;;;21.92;44.34;99901.69;5059237;28;890;-40
2021/05/17 04:01:07;;;;;;;;;;;;;;;22.69;43.04;99899.53;5043128;28;771;-43
2021/05/17 04:03:33;;;;;;;;;;;;;;;23.61;40.81;99909.75;5038804;28;862;-38
2021/05/17 04:06:13;;;;;;;;;;;;;;;24.05;39.84;99910.91;5038636;28;837;-39
2021/05/17 04:13:53;;;;;;;;;;;;;;;24.57;39.04;99916.41;5038813;28;614;-38
2021/05/17 04:16:18;;;;;;;;;;;;;;;24.60;39.22;99920.59;5038520;28;824;-38
2021/05/17 04:18:45;;;;;;;;;;;;;;;24.66;39.21;99919.00;5038381;28;732;-39
2021/05/17 04:21:10;;;;;;;;;;;;;;;24.70;39.04;99928.38;5052153;28;1156;-40
2021/05/17 04:23:36;;;;;;;;;;;;;;;24.78;38.88;99930.97;5058640;28;759;-42
2021/05/17 04:26:01;;;;;;;;;;;;;;;24.87;38.50;99930.88;5057787;28;983;-37
2021/05/17 04:28:26;;;;;;;;;;;;;;;24.92;38.65;99923.09;5058170;28;1910;-48
2021/05/17 04:30:52;;;;;;;;;;;;;;;25.01;38.52;99931.88;5058708;28;811;-40
2021/05/17 04:33:17;;;;;;;;;;;;;;;24.98;38.63;99935.81;5056191;28;1120;-41
2021/05/17 04:35:42;;;;;;;;;;;;;;;25.12;38.18;99926.03;5058306;28;791;-39
2021/05/17 04:38:07;;;;;;;;;;;;;;;25.15;38.26;99933.72;5058467;28;1427;-40
2021/05/17 04:40:33;;;;;;;;;;;;;;;25.13;38.33;99937.63;5057920;28;871;-41
2021/05/17 04:42:58;;;;;;;;;;;;;;;25.20;38.38;99938.53;5056577;28;967;-36
2021/05/17 04:45:24;;;;;;;;;;;;;;;25.26;38.27;99931.53;5058014;28;835;-37
2021/05/17 04:47:50;;;;;;;;;;;;;;;25.23;38.43;99940.84;5057332;28;1973;-36
2021/05/17 04:50:15;;;;;;;;;;;;;;;25.24;38.51;99934.44;5058290;28;792;-36
2021/05/17 04:52:41;;;;;;;;;;;;;;;25.28;38.50;99934.88;5058067;28;752;-38
2021/05/17 04:55:06;;;;;;;;;;;;;;;25.20;38.50;99927.78;5057543;28;792;-47
2021/05/17 04:57:31;;;;;;;;;;;;;;;25.29;38.23;99931.19;5057581;28;1010;-38
2021/05/17 04:59:57;;;;;;;;;;;;;;;25.24;38.43;99942.50;5057940;28;772;-37
2021/05/17 05:02:22;;;;;;;;;;;;;;;25.36;38.13;99942.84;5039341;28;789;-37
2021/05/17 05:04:47;;;;;;;;;;;;;;;25.37;38.12;99939.16;5057853;28;831;-36
2021/05/17 05:07:14;;;;;;;;;;;;;;;25.39;38.12;99942.47;5058052;28;1968;-47
2021/05/17 05:09:39;;;;;;;;;;;;;;;25.39;38.12;99944.34;5057026;28;843;-38
2021/05/17 05:12:05;;;;;;;;;;;;;;;25.42;38.17;99947.47;5057382;28;919;-37
2021/05/17 05:14:30;;;;;;;;;;;;;;;25.41;38.20;99939.56;5057434;28;823;-37
2021/05/17 05:16:55;;;;;;;;;;;;;;;25.54;38.12;99949.66;5057212;28;732;-37
2021/05/17 05:19:22;;;;;;;;;;;;;;;25.58;37.91;99950.09;5057254;28;855;-36
2021/05/17 05:21:47;;;;;;;;;;;;;;;25.50;38.14;99951.06;5056878;28;816;-48
2021/05/17 05:24:12;;;;;;;;;;;;;;;25.22;38.84;99954.50;5057012;28;803;-39
2021/05/17 05:29:42;;;;;;;;;;;;;;;23.72;41.43;99948.78;5057050;28;605;-37
2021/05/17 05:34:45;;;;;;;;;;;;;;;23.89;41.39;99941.41;5037595;28;779;-38
2021/05/17 05:37:10;;;;;;;;;;;;;;;23.72;41.41;99943.44;5037111;28;779;-38
2021/05/17 05:39:36;;;;;;;;;;;;;;;23.50;42.16;99943.25;5036423;28;1041;-36
2021/05/17 05:42:01;;;;;;;;;;;;;;;23.88;41.97;99941.59;5044770;28;952;-37
2021/05/17 05:44:26;;;;;;;;;;;;;;;23.81;41.20;99952.22;5057225;28;823;-37
2021/05/17 05:46:51;;;;;;;;;;;;;;;23.58;41.89;99951.25;5056606;28;1922;-37
2021/05/17 05:49:17;;;;;;;;;;;;;;;23.41;42.55;99944.28;5056966;28;850;-38
2021/05/17 05:51:42;;;;;;;;;;;;;;;23.41;42.05;99938.91;5056552;28;812;-37
2021/05/17 05:54:07;;;;;;;;;;;;;;;23.28;41.70;99939.47;5056574;28;736;-38
2021/05/17 05:56:33;;;;;;;;;;;;;;;23.22;41.50;99944.53;5056441;28;989;-39
2021/05/17 05:58:58;;;;;;;;;;;;;;;23.14;42.67;99951.81;5056817;28;760;-39
2021/05/17 06:01:23;;;;;;;;;;;;;;;23.78;41.57;99949.91;5056486;28;744;-36
2021/05/17 06:03:49;;;;;;;;;;;;;;;24.40;40.01;99947.22;5056680;28;756;-36
2021/05/17 06:06:14;;;;;;;;;;;;;;;24.72;39.34;99957.78;5056393;28;827;-48
2021/05/17 06:08:40;;;;;;;;;;;;;;;24.80;39.23;99949.63;5056213;28;1898;-36
2021/05/17 06:11:06;;;;;;;;;;;;;;;24.92;39.01;99950.00;5056161;28;904;-37
2021/05/17 06:13:32;;;;;;;;;;;;;;;25.00;38.85;99947.22;5056648;28;986;-38
2021/05/17 06:15:58;;;;;;;;;;;;;;;24.96;39.12;99951.28;5056301;28;807;-41
2021/05/17 06:18:23;;;;;;;;;;;;;;;25.00;39.06;99949.06;5056619;28;709;-38
2021/05/17 06:20:48;;;;;;;;;;;;;;;24.97;39.22;99952.97;5056667;28;768;-44
2021/05/17 06:23:15;;;;;;;;;;;;;;;25.10;38.79;99946.06;5056283;28;819;-40
2021/05/17 06:25:41;;;;;;;;;;;;;;;25.24;38.85;99939.00;5055977;28;792;-38
2021/05/17 06:28:06;;;;;;;;;;;;;;;25.31;38.92;99929.13;5056341;28;1937;-48
2021/05/17 06:30:42;;;;;;;;;;;;;;;25.29;39.10;99929.31;5056101;28;864;-41
2021/05/17 06:33:07;;;;;;;;;;;;;;;25.26;39.36;99924.31;5055655;28;1088;-43
2021/05/17 06:35:35;;;;;;;;;;;;;;;25.44;39.00;99923.88;5060442;28;901;-43
2021/05/17 06:38:01;;;;;;;;;;;;;;;25.47;38.93;99928.06;5060086;28;1182;-40
2021/05/17 06:40:27;;;;;;;;;;;;;;;25.56;39.01;99928.75;5060392;28;755;-46
2021/05/17 06:42:52;;;;;;;;;;;;;;;25.66;38.75;99923.06;5058734;28;955;-37
2021/05/17 06:45:17;;;;;;;;;;;;;;;25.66;39.01;99918.53;5059903;28;740;-37
2021/05/17 06:47:43;;;;;;;;;;;;;;;25.65;39.00;99922.25;5060156;28;1909;-41
2021/05/17 06:50:09;;;;;;;;;;;;;;;25.77;38.50;99922.56;5060144;28;950;-36
2021/05/17 06:52:34;;;;;;;;;;;;;;;25.85;38.88;99923.44;5060185;28;743;-36
2021/05/17 06:55:22;;;;;;;;;;;;;;;25.82;38.53;99921.97;5060047;28;776;-36
2021/05/17 07:00:19;;;;;;;;;;;;;;;25.88;38.52;99923.03;5059490;28;672;-36
2021/05/17 07:02:44;;;;;;;;;;;;;;;25.92;38.33;99910.88;5060245;28;779;-36
2021/05/17 07:05:09;;;;;;;;;;;;;;;25.88;38.50;99909.56;5041748;28;921;-42
2021/05/17 07:07:51;;;;;;;;;;;;;;;25.87;38.65;99913.31;5059240;28;1977;-36
2021/05/17 07:13:00;;;;;;;;;;;;;;;25.99;38.18;99916.31;5059486;28;939;-36
2021/05/17 07:15:25;;;;;;;;;;;;;;;26.05;38.08;99904.72;5059418;28;752;-36
2021/05/17 07:17:51;;;;;;;;;;;;;;;26.07;37.86;99908.06;5058784;28;1084;-43
2021/05/17 07:20:20;;;;;;;;;;;;;;;26.08;38.01;99906.19;5059241;28;1084;-34
2021/05/17 07:25:29;;;;;;;;;;;;;;;26.14;38.11;99911.63;5059374;28;609;-36
2021/05/17 07:27:54;;;;;;;;;;;;;;;26.23;38.01;99901.53;5059071;28;1975;-45
2021/05/17 07:30:20;;;;;;;;;;;;;;;26.27;37.76;99902.81;5059291;28;748;-37
2021/05/17 07:32:45;;;;;;;;;;;;;;;26.37;37.85;99902.50;5055052;28;1127;-43
2021/05/17 07:35:10;;;;;;;;;;;;;;;26.13;37.25;99904.59;5039442;28;874;-43
2021/05/17 07:37:36;;;;;;;;;;;;;;;26.19;37.95;99896.75;5039297;28;767;-36
2021/05/17 07:40:02;;;;;;;;;;;;;;;26.31;37.91;99900.53;5039416;28;1320;-45
2021/05/17 07:42:27;;;;;;;;;;;;;;;26.35;37.66;99896.47;5047799;28;1015;-45
2021/05/17 07:44:53;;;;;;;;;;;;;;;26.43;37.61;99895.47;5058900;28;838;-39
2021/05/17 07:47:18;;;;;;;;;;;;;;;26.50;37.72;99899.03;5059307;28;1910;-36
2021/05/17 07:49:51;;;;;;;;;;;;;;;26.39;37.64;99902.28;5059073;28;827;-42
2021/05/17 07:52:16;;;;;;;;;;;;;;;26.34;37.77;99897.47;5058996;28;803;-46
2021/05/17 07:54:41;;;;;;;;;;;;;;;26.37;37.75;99904.34;5058852;28;839;-37
2021/05/17 07:57:07;;;;;;;;;;;;;;;26.39;37.69;99908.50;5058726;28;919;-36
2021/05/17 07:59:32;;;;;;;;;;;;;;;26.46;37.67;99894.25;5058797;28;768;-36
2021/05/17 08:01:58;;;;;;;;;;;;;;;26.55;37.30;99905.69;5058841;28;862;-37
2021/05/17 08:04:23;;;;;;;;;;;;;;;26.56;37.32;99902.78;5058995;28;835;-37
2021/05/17 08:06:49;;;;;;;;;;;;;;;26.54;37.66;99899.47;5049362;28;1069;-37
2021/05/17 08:09:14;;;;;;;;;;;;;;;26.75;37.17;99895.81;5039167;28;1981;-42
2021/05/17 08:11:39;;;;;;;;;;;;;;;26.70;37.05;99901.00;5042156;28;967;-38
2021/05/17 08:14:05;;;;;;;;;;;;;;;26.68;37.24;99891.41;5058373;28;760;-36
2021/05/17 08:16:32;;;;;;;;;;;;;;;26.72;37.17;99890.00;5059021;28;721;-39
2021/05/17 08:18:57;;;;;;;;;;;;;;;26.64;37.16;99889.13;5058497;28;872;-43
2021/05/17 08:21:23;;;;;;;;;;;;;;;26.73;37.07;99894.34;5057975;28;1419;-43
2021/05/17 08:23:48;;;;;;;;;;;;;;;26.63;37.26;99889.31;5059041;28;736;-39
2021/05/17 08:26:13;;;;;;;;;;;;;;;26.70;36.99;99890.19;5057755;28;916;-40
2021/05/17 08:28:41;;;;;;;;;;;;;;;26.78;37.14;99889.19;5058545;28;1901;-36
2021/05/17 08:31:07;;;;;;;;;;;;;;;26.77;36.99;99893.75;5057968;28;804;-36
2021/05/17 08:33:33;;;;;;;;;;;;;;;26.77;37.29;99885.66;5046528;28;1075;-35
2021/05/17 08:35:59;;;;;;;;;;;;;;;26.78;37.24;99891.88;5038514;28;771;-36
2021/05/17 08:38:24;;;;;;;;;;;;;;;26.80;37.39;99888.97;5038001;28;1065;-37
2021/05/17 08:40:49;;;;;;;;;;;;;;;26.82;37.09;99882.34;5038322;28;818;-44
2021/05/17 08:43:14;;;;;;;;;;;;;;;26.88;36.80;99891.50;5053234;28;1009;-38
2021/05/17 08:45:40;;;;;;;;;;;;;;;26.95;36.62;99894.22;5057569;28;788;-37
2021/05/17 08:48:05;;;;;;;;;;;;;;;26.93;36.86;99898.97;5058054;28;1914;-37
2021/05/17 08:50:31;;;;;;;;;;;;;;;26.99;36.89;99901.69;5058452;28;744;-35
2021/05/17 08:52:56;;;;;;;;;;;;;;;27.07;36.36;99905.28;5057589;28;788;-38
2021/05/17 08:55:22;;;;;;;;;;;;;;;27.04;36.39;99895.75;5057075;28;819;-44
2021/05/17 08:57:47;;;;;;;;;;;;;;;27.09;36.35;99887.84;5057909;28;947;-38
2021/05/17 09:00:14;;;;;;;;;;;;;;;27.08;36.75;99883.50;5057302;28;743;-45
2021/05/17 09:02:40;;;;;;;;;;;;;;;27.10;36.52;99886.81;5057018;28;1131;-35
2021/05/17 09:05:17;;;;;;;;;;;;;;;27.09;36.52;99868.13;5057557;28;957;-38
2021/05/17 09:07:44;;;;;;;;;;;;;;;27.12;36.86;99870.44;5056885;28;1964;-45
2021/05/17 09:10:19;;;;;;;;;;;;;;;27.14;36.68;99860.25;5057262;28;804;-44
2021/05/17 09:12:54;;;;;;;;;;;;;;;27.25;36.40;99873.16;5057658;28;1030;-39
2021/05/17 09:15:26;;;;;;;;;;;;;;;27.33;36.13;99869.41;5056689;28;854;-37
2021/05/17 09:17:57;;;;;;;;;;;;;;;27.29;36.46;99864.63;5057358;28;843;-36
2021/05/17 09:20:23;;;;;;;;;;;;;;;27.30;36.37;99864.44;5057455;28;788;-36
2021/05/17 09:22:50;;;;;;;;;;;;;;;27.31;35.97;99860.69;5056941;28;821;-37
2021/05/17 09:25:15;;;;;;;;;;;;;;;27.40;36.20;99850.50;5037644;28;1303;-37
2021/05/17 09:27:40;;;;;;;;;;;;;;;27.33;36.32;99844.28;5056494;28;1910;-37
2021/05/17 09:30:06;;;;;;;;;;;;;;;27.39;35.95;99852.38;5057028;28;748;-42
2021/05/17 09:32:32;;;;;;;;;;;;;;;27.39;36.45;99849.69;5055391;28;1163;-42
2021/05/17 09:34:58;;;;;;;;;;;;;;;27.50;36.02;99852.81;5057422;28;817;-43
2021/05/17 09:37:23;;;;;;;;;;;;;;;27.49;36.19;99859.25;5056765;28;760;-35
2021/05/17 09:39:50;;;;;;;;;;;;;;;27.49;35.99;99854.66;5039181;28;1322;-35
2021/05/17 09:42:15;;;;;;;;;;;;;;;27.47;36.05;99847.81;5055309;28;940;-45
2021/05/17 09:44:43;;;;;;;;;;;;;;;27.39;35.96;99851.56;5056482;28;729;-37
2021/05/17 09:47:12;;;;;;;;;;;;;;;27.49;35.89;99849.25;5056929;28;1981;-38
2021/05/17 09:49:39;;;;;;;;;;;;;;;27.49;35.38;99838.47;5056619;28;845;-36
2021/05/17 09:52:04;;;;;;;;;;;;;;;27.51;36.32;99844.50;5056542;28;709;-39
2021/05/17 09:54:29;;;;;;;;;;;;;;;27.53;38.14;99849.69;5056851;28;878;-40
2021/05/17 09:57:15;;;;;;;;;;;;;;;27.43;39.38;99831.19;5056403;28;979;-37
2021/05/17 09:59:42;;;;;;;;;;;;;;;27.42;39.55;99831.41;5055789;28;1297;-35
2021/05/17 10:02:08;;;;;;;;;;;;;;;27.44;40.69;99829.34;5056892;28;823;-45
2021/05/17 10:04:33;;;;;;;;;;;;;;;27.29;38.21;99824.97;5056536;28;779;-45
2021/05/17 10:06:58;;;;;;;;;;;;;;;27.36;39.52;99824.97;5052532;28;1902;-38
2021/05/17 10:09:24;;;;;;;;;;;;;;;27.33;39.11;99831.59;5036545;28;803;-36
2021/05/17 10:11:49;;;;;;;;;;;;;;;27.38;37.75;99826.41;5024823;28;933;-40
2021/05/17 10:14:14;;;;;;;;;;;;;;;27.32;38.02;99821.84;5056394;28;744;-36
2021/05/17 10:16:41;;;;;;;;;;;;;;;27.42;37.64;99850.31;5038692;28;892;-37
2021/05/17 10:19:08;;;;;;;;;;;;;;;27.47;35.17;99832.47;5039258;28;740;-38
2021/05/17 10:21:33;;;;;;;;;;;;;;;27.51;33.78;99824.75;5038248;28;898;-44
2021/05/17 10:24:01;;;;;;;;;;;;;;;27.51;34.55;99825.59;5056263;28;1422;-38
2021/05/17 10:26:27;;;;;;;;;;;;;;;27.47;34.29;99824.34;5055941;28;935;-34
2021/05/17 10:28:53;;;;;;;;;;;;;;;27.47;35.01;99842.41;5038408;28;1967;-35
2021/05/17 10:31:19;;;;;;;;;;;;;;;27.55;32.29;99836.81;5056701;28;771;-43
2021/05/17 10:33:59;;;;;;;;;;;;;;;27.59;32.25;99832.63;5043348;28;1095;-35
2021/05/17 10:36:43;;;;;;;;;;;;;;;27.45;34.25;99830.97;5036115;28;919;-42
2021/05/17 10:39:12;;;;;;;;;;;;;;;27.43;35.03;99838.47;5036428;28;1081;-36
2021/05/17 10:41:51;;;;;;;;;;;;;;;27.39;35.13;99825.38;5037997;28;959;-37
2021/05/17 10:46:54;;;;;;;;;;;;;;;27.25;35.77;99853.41;5056102;28;664;-41
2021/05/17 10:49:19;;;;;;;;;;;;;;;27.32;35.60;99848.03;5055692;28;1975;-40
2021/05/17 10:51:44;;;;;;;;;;;;;;;27.31;35.85;99855.28;5056189;28;787;-42
2021/05/17 10:54:23;;;;;;;;;;;;;;;27.31;35.31;99846.38;5040591;28;809;-36
2021/05/17 10:56:55;;;;;;;;;;;;;;;27.50;35.50;99844.69;5042006;28;896;-36
2021/05/17 11:02:09;;;;;;;;;;;;;;;27.57;34.80;99836.59;5055938;28;594;-42
2021/05/17 11:04:35;;;;;;;;;;;;;;;27.60;35.26;99842.41;5048555;28;841;-36
2021/05/17 11:07:27;;;;;;;;;;;;;;;27.67;35.18;99831.63;5036166;28;1951;-35
2021/05/17 11:09:52;;;;;;;;;;;;;;;27.72;35.06;99841.81;5032020;28;970;-38
2021/05/17 11:12:24;;;;;;;;;;;;;;;27.69;35.26;99842.25;5044763;28;1081;-39
2021/05/17 11:15:05;;;;;;;;;;;;;;;27.68;35.08;99838.69;5056184;28;812;-35
2021/05/17 11:17:30;;;;;;;;;;;;;;;27.79;35.10;99839.94;5055720;28;871;-35
2021/05/17 11:19:56;;;;;;;;;;;;;;;27.78;35.04;99837.47;5057885;28;828;-42
2021/05/17 11:22:21;;;;;;;;;;;;;;;27.81;35.32;99842.44;5041658;28;909;-33
2021/05/17 11:24:47;;;;;;;;;;;;;;;27.57;34.88;99844.69;5039671;28;748;-43
2021/05/17 11:27:12;;;;;;;;;;;;;;;27.66;35.41;99842.63;5047568;28;1967;-43
2021/05/17 11:29:38;;;;;;;;;;;;;;;27.72;35.35;99845.34;5059653;28;760;-42
2021/05/17 11:32:13;;;;;;;;;;;;;;;27.68;35.60;99846.81;5041835;28;799;-35
2021/05/17 11:34:57;;;;;;;;;;;;;;;27.70;35.57;99841.19;5031405;28;1027;-42
2021/05/17 11:37:22;;;;;;;;;;;;;;;27.87;34.89;99853.25;5059187;28;835;-35
2021/05/17 11:39:48;;;;;;;;;;;;;;;27.87;35.26;99853.25;5057341;28;1292;-42
2021/05/17 11:42:13;;;;;;;;;;;;;;;27.86;35.28;99848.06;5039403;28;845;-35
2021/05/17 11:44:57;;;;;;;;;;;;;;;27.84;35.47;99850.13;5059120;28;750;-39
2021/05/17 11:47:27;;;;;;;;;;;;;;;27.86;35.50;99846.16;5058614;28;1911;-35
2021/05/17 11:49:52;;;;;;;;;;;;;;;27.83;35.32;99845.75;5058652;28;808;-45
2021/05/17 11:52:19;;;;;;;;;;;;;;;27.81;35.26;99842.44;5058728;28;736;-34
2021/05/17 11:54:46;;;;;;;;;;;;;;;27.82;34.74;99844.94;5058861;28;732;-43
2021/05/17 11:57:11;;;;;;;;;;;;;;;27.79;34.86;99836.41;5058417;28;912;-42
2021/05/17 11:59:36;;;;;;;;;;;;;;;27.74;34.59;99835.16;5058979;28;740;-44
2021/05/17 12:02:05;;;;;;;;;;;;;;;27.74;35.02;99837.03;5058507;28;732;-37
2021/05/17 12:04:34;;;;;;;;;;;;;;;27.85;34.65;99832.84;5058659;28;764;-39
2021/05/17 12:07:16;;;;;;;;;;;;;;;27.81;34.93;99837.84;5058619;28;744;-34
2021/05/17 12:09:45;;;;;;;;;;;;;;;27.85;34.66;99833.69;5059041;28;484;-36
2021/05/17 12:12:14;;;;;;;;;;;;;;;27.80;34.80;99838.91;5057511;28;931;-35
2021/05/17 12:14:40;;;;;;;;;;;;;;;27.82;35.30;99835.97;5058379;28;811;-40
2021/05/17 12:17:05;;;;;;;;;;;;;;;27.86;35.05;99839.94;5058945;28;707;-41
2021/05/17 12:19:30;;;;;;;;;;;;;;;27.78;35.18;99840.16;5037872;28;1132;-36
2021/05/17 12:21:56;;;;;;;;;;;;;;;27.81;34.86;99847.84;5038241;28;799;-49
2021/05/17 12:24:22;;;;;;;;;;;;;;;27.93;34.92;99839.91;5038674;28;788;-37
2021/05/17 12:27:04;;;;;;;;;;;;;;;27.90;34.75;99841.16;5043175;28;975;-35
2021/05/17 12:29:47;;;;;;;;;;;;;;;27.74;35.19;99840.56;5058681;28;808;-40
2021/05/17 12:32:12;;;;;;;;;;;;;;;27.79;34.95;99845.34;5057456;28;744;-34
2021/05/17 12:34:38;;;;;;;;;;;;;;;27.82;35.05;99842.22;5037708;28;1198;-44
2021/05/17 12:37:04;;;;;;;;;;;;;;;27.87;34.82;99836.19;5038962;28;736;-42
2021/05/17 12:39:29;;;;;;;;;;;;;;;27.91;34.64;99839.31;5038390;28;1198;-44
2021/05/17 12:41:54;;;;;;;;;;;;;;;27.88;34.95;99837.84;5041601;28;1006;-38
2021/05/17 12:44:26;;;;;;;;;;;;;;;27.84;34.98;99834.72;5057789;28;759;-34
2021/05/17 12:47:10;;;;;;;;;;;;;;;27.94;34.54;99837.03;5058327;28;831;-43
2021/05/17 12:49:45;;;;;;;;;;;;;;;27.86;34.81;99831.84;5057812;28;732;-41
2021/05/17 12:52:10;;;;;;;;;;;;;;;27.82;35.05;99833.28;5058189;28;726;-42
2021/05/17 12:54:35;;;;;;;;;;;;;;;27.68;34.22;99827.03;5057171;28;523;-42
2021/05/17 12:57:05;;;;;;;;;;;;;;;27.64;34.15;99829.34;5039144;28;1016;-45
2021/05/17 12:59:31;;;;;;;;;;;;;;;27.60;33.96;99830.78;5057986;28;799;-41
2021/05/17 13:02:08;;;;;;;;;;;;;;;27.64;34.20;99826.63;5057868;28;811;-39
2021/05/17 13:04:34;;;;;;;;;;;;;;;27.63;33.73;99827.66;5056937;28;878;-41
2021/05/17 13:07:03;;;;;;;;;;;;;;;27.62;33.18;99826.00;5040186;28;859;-40
2021/05/17 13:09:28;;;;;;;;;;;;;;;27.56;33.13;99826.84;5057556;28;803;-41
2021/05/17 13:11:54;;;;;;;;;;;;;;;27.54;33.62;99821.66;5057160;28;967;-40
2021/05/17 13:14:21;;;;;;;;;;;;;;;27.46;33.05;99816.47;5057314;28;803;-40
2021/05/17 13:16:49;;;;;;;;;;;;;;;27.51;33.46;99811.25;5057820;28;787;-40
2021/05/17 13:30:14;;;;;;;;;;;;;;;27.32;33.45;99807.50;5057231;28;1042;-41
2021/05/17 13:32:40;;;;;;;;;;;;;;;27.34;33.12;99806.25;5053324;28;1171;-42
2021/05/17 13:35:06;;;;;;;;;;;;;;;27.39;33.33;99808.34;5037126;28;780;-41
2021/05/17 13:37:31;;;;;;;;;;;;;;;27.42;33.45;99801.69;5037443;28;717;-40
2021/05/17 13:39:56;;;;;;;;;;;;;;;27.50;33.29;99805.03;5036335;28;1428;-40